Time;durP1;ratioP1;P1;durP2;ratioP2;P2;SDS_P1;SDS_P2;PMS_P1;PMS_P2;Temp;Humidity;BMP_temperature;BMP_pressure;BME280_temperature;BME280_humidity;BME280_pressure;Samples;Min_cycle;Max_cycle;Signal;HPM_P1;HPM_P2
2023/01/15 00:01:05;;;;;;;;;;;5.80;99.90;;;;;;5045113;28;19932;-75
2023/01/15 00:03:31;;;;;;;;;;;5.80;99.90;;;;;;5076874;28;19924;-75
2023/01/15 00:06:03;;;;;;;;;;;5.80;99.90;;;;;;5069498;28;19920;-75
2023/01/15 00:08:30;;;;;;;;;;;5.70;99.90;;;;;;5046911;28;19924;-74
2023/01/15 00:11:01;;;;;;;;;;;5.70;99.90;;;;;;5041571;28;20277;-75
2023/01/15 00:13:28;;;;;;;;;;;5.80;99.90;;;;;;5063647;28;19938;-75
2023/01/15 00:16:01;;;;;;;;;;;5.80;99.90;;;;;;5044241;28;19968;-74
2023/01/15 00:18:26;;;;;;;;;;;5.70;99.90;;;;;;5061379;28;19921;-75
2023/01/15 00:20:57;;;;;;;;;;;5.80;99.90;;;;;;5042521;28;19928;-75
2023/01/15 00:28:58;;;;;;;;;;;5.80;99.90;;;;;;5054398;28;19943;-74
2023/01/15 00:31:24;;;;;;;;;;;5.80;99.90;;;;;;5061343;28;20281;-74
2023/01/15 00:33:49;;;;;;;;;;;5.90;99.90;;;;;;5075505;28;20452;-75
2023/01/15 00:36:15;;;;;;;;;;;5.90;99.90;;;;;;5058788;28;20123;-75
2023/01/15 00:38:40;;;;;;;;;;;5.90;99.90;;;;;;5059589;28;20475;-75
2023/01/15 00:41:06;;;;;;;;;;;5.90;99.90;;;;;;5026860;28;19995;-75
2023/01/15 00:43:36;;;;;;;;;;;5.90;99.90;;;;;;5058832;28;19925;-75
2023/01/15 00:46:04;;;;;;;;;;;5.80;99.90;;;;;;5042791;28;20389;-75
2023/01/15 00:48:29;;;;;;;;;;;5.90;99.90;;;;;;5043559;28;19993;-74
2023/01/15 00:50:55;;;;;;;;;;;5.90;99.90;;;;;;5043161;28;20446;-75
2023/01/15 00:53:21;;;;;;;;;;;5.90;99.90;;;;;;5043027;28;19928;-75
2023/01/15 00:55:46;;;;;;;;;;;5.90;99.90;;;;;;5047188;28;20299;-75
2023/01/15 00:58:12;;;;;;;;;;;5.90;99.90;;;;;;5061536;28;19968;-75
2023/01/15 01:00:37;;;;;;;;;;;5.80;99.90;;;;;;5044811;28;20481;-74
2023/01/15 01:03:03;;;;;;;;;;;5.80;99.90;;;;;;5057714;28;19924;-75
2023/01/15 01:05:29;;;;;;;;;;;5.80;99.90;;;;;;5042571;28;19928;-75
2023/01/15 01:07:55;;;;;;;;;;;5.80;99.90;;;;;;5046932;28;19989;-75
2023/01/15 01:10:21;;;;;;;;;;;5.80;99.90;;;;;;5058145;28;19964;-75
2023/01/15 01:12:50;;;;;;;;;;;5.80;99.90;;;;;;5046125;28;19929;-74
2023/01/15 01:15:16;;;;;;;;;;;5.90;99.90;;;;;;5039208;28;19936;-75
2023/01/15 01:17:42;;;;;;;;;;;5.80;99.90;;;;;;5056833;28;20007;-75
2023/01/15 01:20:09;;;;;;;;;;;5.80;99.90;;;;;;5041393;28;20516;-75
2023/01/15 01:22:34;;;;;;;;;;;5.80;99.90;;;;;;5058781;28;19933;-74
2023/01/15 01:25:00;;;;;;;;;;;5.70;99.90;;;;;;5047301;28;19929;-75
2023/01/15 01:27:25;;;;;;;;;;;5.80;99.90;;;;;;5042910;28;20393;-75
2023/01/15 01:29:51;;;;;;;;;;;5.80;99.90;;;;;;5058066;28;19924;-75
2023/01/15 01:32:17;;;;;;;;;;;5.80;99.90;;;;;;5045924;28;19927;-75
2023/01/15 01:34:42;;;;;;;;;;;5.80;99.90;;;;;;5064362;28;19921;-75
2023/01/15 01:37:08;;;;;;;;;;;5.80;99.90;;;;;;5060479;28;19927;-74
2023/01/15 01:39:36;;;;;;;;;;;5.80;99.90;;;;;;5062247;28;19943;-74
2023/01/15 01:42:02;;;;;;;;;;;5.80;99.90;;;;;;5058418;28;20340;-75
2023/01/15 01:44:33;;;;;;;;;;;5.80;99.90;;;;;;5050394;28;20445;-74
2023/01/15 01:47:00;;;;;;;;;;;5.70;99.90;;;;;;5063599;28;19920;-74
2023/01/15 01:49:27;;;;;;;;;;;5.80;99.90;;;;;;5049039;28;19927;-75
2023/01/15 01:52:15;;;;;;;;;;;5.70;99.90;;;;;;5032819;28;19922;-75
2023/01/15 01:54:43;;;;;;;;;;;5.70;99.90;;;;;;5060298;28;19959;-75
2023/01/15 01:57:09;;;;;;;;;;;5.70;99.90;;;;;;5062656;28;19973;-75
2023/01/15 01:59:36;;;;;;;;;;;5.70;99.90;;;;;;5073225;28;20014;-75
2023/01/15 02:02:02;;;;;;;;;;;5.70;99.90;;;;;;5061905;28;19933;-75
2023/01/15 02:04:28;;;;;;;;;;;5.70;99.90;;;;;;5048483;28;19967;-75
2023/01/15 02:06:56;;;;;;;;;;;5.70;99.90;;;;;;5044674;28;20069;-75
2023/01/15 02:09:22;;;;;;;;;;;5.80;99.90;;;;;;5067703;28;19927;-75
2023/01/15 02:11:55;;;;;;;;;;;5.80;99.90;;;;;;5048425;28;19920;-75
2023/01/15 02:14:34;;;;;;;;;;;5.80;99.90;;;;;;5048450;28;19959;-75
2023/01/15 02:17:08;;;;;;;;;;;5.80;99.90;;;;;;5060753;28;20308;-74
2023/01/15 02:19:40;;;;;;;;;;;5.80;99.90;;;;;;5062112;28;19921;-75
2023/01/15 02:22:14;;;;;;;;;;;5.80;99.90;;;;;;5047225;28;19924;-75
2023/01/15 02:24:52;;;;;;;;;;;5.70;99.90;;;;;;5048678;28;19924;-75
2023/01/15 02:27:21;;;;;;;;;;;5.70;99.90;;;;;;5059855;28;19920;-75
2023/01/15 02:30:06;;;;;;;;;;;5.70;99.90;;;;;;5074723;28;20019;-75
2023/01/15 02:32:35;;;;;;;;;;;5.60;99.90;;;;;;5073574;28;20018;-75
2023/01/15 02:35:04;;;;;;;;;;;5.60;99.90;;;;;;5060646;28;19928;-75
2023/01/15 02:37:32;;;;;;;;;;;5.60;99.90;;;;;;5062864;28;19920;-74
2023/01/15 02:40:00;;;;;;;;;;;5.70;99.90;;;;;;5060588;28;19929;-74
2023/01/15 02:42:27;;;;;;;;;;;5.70;99.90;;;;;;5062748;28;19931;-75
2023/01/15 02:44:53;;;;;;;;;;;5.70;99.90;;;;;;5058412;28;20003;-75
2023/01/15 02:47:23;;;;;;;;;;;5.70;99.90;;;;;;5062714;28;19924;-75
2023/01/15 02:49:49;;;;;;;;;;;5.70;99.90;;;;;;5055971;28;19925;-75
2023/01/15 02:52:25;;;;;;;;;;;5.70;99.90;;;;;;5045231;28;20015;-75
2023/01/15 02:54:58;;;;;;;;;;;5.60;99.90;;;;;;5059601;28;19931;-74
2023/01/15 02:57:25;;;;;;;;;;;5.70;99.90;;;;;;5057674;28;19927;-74
2023/01/15 02:59:53;;;;;;;;;;;5.70;99.90;;;;;;5061118;28;19936;-74
2023/01/15 03:02:21;;;;;;;;;;;5.60;99.90;;;;;;5078486;28;19920;-74
2023/01/15 03:05:04;;;;;;;;;;;5.70;99.90;;;;;;5061139;28;20057;-75
2023/01/15 03:07:34;;;;;;;;;;;5.60;99.90;;;;;;5058103;28;20348;-75
2023/01/15 03:10:00;;;;;;;;;;;5.60;99.90;;;;;;5063895;28;20015;-74
2023/01/15 03:13:00;;;;;;;;;;;5.60;99.90;;;;;;5059035;28;20023;-74
2023/01/15 03:16:33;;;;;;;;;;;5.60;99.90;;;;;;5061316;28;19931;-74
2023/01/15 03:18:08;;;;;;;;;;;5.60;99.90;;;;;;5060095;28;19932;-74
2023/01/15 03:20:35;;;;;;;;;;;5.50;99.90;;;;;;5055433;28;19967;-75
2023/01/15 03:23:09;;;;;;;;;;;5.60;99.90;;;;;;5062487;28;19933;-75
2023/01/15 03:25:42;;;;;;;;;;;5.60;99.90;;;;;;5063888;28;19921;-75
2023/01/15 03:28:11;;;;;;;;;;;5.60;99.90;;;;;;5057976;28;19966;-75
2023/01/15 03:30:37;;;;;;;;;;;5.60;99.90;;;;;;5060484;28;19928;-74
2023/01/15 03:33:03;;;;;;;;;;;5.50;99.90;;;;;;5044319;28;19927;-75
2023/01/15 03:35:40;;;;;;;;;;;5.50;99.90;;;;;;5057549;28;20565;-75
2023/01/15 03:38:10;;;;;;;;;;;5.60;99.90;;;;;;5062111;28;20395;-75
2023/01/15 03:40:37;;;;;;;;;;;5.60;99.90;;;;;;5055743;28;19924;-75
2023/01/15 03:45:54;;;;;;;;;;;5.50;99.90;;;;;;5061851;28;19920;-75
2023/01/15 03:48:25;;;;;;;;;;;5.50;99.90;;;;;;5058098;28;19932;-75
2023/01/15 03:51:00;;;;;;;;;;;5.60;99.90;;;;;;5061182;28;20183;-75
2023/01/15 03:53:28;;;;;;;;;;;5.60;99.90;;;;;;5058708;28;19928;-75
2023/01/15 03:56:06;;;;;;;;;;;5.60;99.90;;;;;;5060474;28;19921;-75
2023/01/15 03:58:52;;;;;;;;;;;5.50;99.90;;;;;;5057493;28;19924;-75
2023/01/15 04:01:21;;;;;;;;;;;5.50;99.90;;;;;;5077201;28;19933;-74
2023/01/15 04:03:48;;;;;;;;;;;5.50;99.90;;;;;;5058757;28;19924;-75
2023/01/15 04:06:14;;;;;;;;;;;5.50;99.90;;;;;;5030255;28;20675;-75
2023/01/15 04:08:41;;;;;;;;;;;5.50;99.90;;;;;;5049004;28;19924;-74
2023/01/15 04:11:07;;;;;;;;;;;5.50;99.90;;;;;;5059458;28;19935;-75
2023/01/15 04:13:32;;;;;;;;;;;5.50;99.90;;;;;;5043064;28;19921;-75
2023/01/15 04:15:58;;;;;;;;;;;5.50;99.90;;;;;;5055260;28;19920;-75
2023/01/15 04:18:24;;;;;;;;;;;5.50;99.90;;;;;;5062568;28;20369;-75
2023/01/15 04:20:53;;;;;;;;;;;5.50;99.90;;;;;;5058046;28;19929;-75
2023/01/15 04:23:22;;;;;;;;;;;5.50;99.90;;;;;;5059270;28;20389;-75
2023/01/15 04:25:51;;;;;;;;;;;5.50;99.90;;;;;;5058792;28;19974;-75
2023/01/15 04:28:24;;;;;;;;;;;5.40;99.90;;;;;;5058506;28;19921;-75
2023/01/15 04:30:50;;;;;;;;;;;5.50;99.90;;;;;;5060733;28;19964;-75
2023/01/15 04:33:18;;;;;;;;;;;5.50;99.90;;;;;;5041994;28;19960;-75
2023/01/15 04:35:46;;;;;;;;;;;5.60;99.90;;;;;;5071291;28;20667;-75
2023/01/15 04:38:12;;;;;;;;;;;5.50;99.90;;;;;;5059448;28;19928;-75
2023/01/15 04:46:06;;;;;;;;;;;5.50;99.90;;;;;;5061309;28;19925;-75
2023/01/15 04:48:32;;;;;;;;;;;5.50;99.90;;;;;;5059068;28;19921;-74
2023/01/15 04:51:01;;;;;;;;;;;5.40;99.90;;;;;;5056819;28;19924;-74
2023/01/15 04:53:26;;;;;;;;;;;5.50;99.90;;;;;;5059528;28;19929;-74
2023/01/15 04:56:03;;;;;;;;;;;5.50;99.90;;;;;;5061547;28;19925;-74
2023/01/15 04:58:30;;;;;;;;;;;5.50;99.90;;;;;;5060070;28;20421;-74
2023/01/15 05:01:03;;;;;;;;;;;5.50;99.90;;;;;;5047193;28;19943;-75
2023/01/15 05:03:30;;;;;;;;;;;5.50;99.90;;;;;;5061016;28;20007;-74
2023/01/15 05:05:59;;;;;;;;;;;5.60;99.90;;;;;;5058964;28;19920;-75
2023/01/15 05:08:26;;;;;;;;;;;5.60;99.90;;;;;;5072761;28;19920;-75
2023/01/15 05:11:10;;;;;;;;;;;5.50;99.90;;;;;;5045091;28;19936;-74
2023/01/15 05:13:37;;;;;;;;;;;5.50;99.90;;;;;;5062100;28;19925;-75
2023/01/15 05:16:11;;;;;;;;;;;5.50;99.90;;;;;;5065028;28;20035;-74
2023/01/15 05:18:36;;;;;;;;;;;5.50;99.90;;;;;;5079896;28;19924;-75
2023/01/15 05:21:25;;;;;;;;;;;5.50;99.90;;;;;;5066113;28;19931;-75
2023/01/15 05:23:52;;;;;;;;;;;5.50;99.90;;;;;;5037001;28;19971;-74
2023/01/15 05:26:19;;;;;;;;;;;5.50;99.90;;;;;;5079016;28;19920;-74
2023/01/15 05:28:46;;;;;;;;;;;5.50;99.90;;;;;;5047039;28;19929;-74
2023/01/15 05:31:13;;;;;;;;;;;5.50;99.90;;;;;;5060023;28;19932;-74
2023/01/15 05:33:39;;;;;;;;;;;5.50;99.90;;;;;;5061423;28;19920;-75
2023/01/15 05:36:15;;;;;;;;;;;5.40;99.90;;;;;;5064049;28;20019;-74
2023/01/15 05:38:41;;;;;;;;;;;5.40;99.90;;;;;;5062905;28;19974;-75
2023/01/15 05:43:55;;;;;;;;;;;5.30;99.90;;;;;;5060895;28;19933;-75
2023/01/15 05:46:25;;;;;;;;;;;5.00;99.90;;;;;;5060082;28;20225;-74
2023/01/15 05:48:51;;;;;;;;;;;5.30;99.90;;;;;;5056994;28;19921;-74
2023/01/15 05:51:19;;;;;;;;;;;5.30;99.90;;;;;;5062169;28;19974;-74
2023/01/15 05:53:48;;;;;;;;;;;5.30;99.90;;;;;;5064755;28;19983;-74
2023/01/15 05:56:14;;;;;;;;;;;5.30;99.90;;;;;;5076437;28;19921;-75
2023/01/15 05:58:39;;;;;;;;;;;5.20;99.90;;;;;;5064680;28;19921;-75
2023/01/15 06:01:09;;;;;;;;;;;5.20;99.90;;;;;;5048377;28;20368;-75
2023/01/15 06:03:35;;;;;;;;;;;5.20;99.90;;;;;;5062061;28;19944;-75
2023/01/15 06:06:03;;;;;;;;;;;5.30;99.90;;;;;;5075361;28;20386;-75
2023/01/15 06:08:32;;;;;;;;;;;5.20;99.90;;;;;;5031241;28;19920;-74
2023/01/15 06:10:58;;;;;;;;;;;5.20;99.90;;;;;;5057797;28;20023;-75
2023/01/15 06:13:26;;;;;;;;;;;5.10;99.90;;;;;;5060980;28;19928;-74
2023/01/15 06:15:52;;;;;;;;;;;5.20;99.90;;;;;;5046648;28;19920;-75
2023/01/15 06:18:17;;;;;;;;;;;5.10;99.90;;;;;;5044096;28;19943;-75
2023/01/15 06:20:43;;;;;;;;;;;5.10;99.90;;;;;;5034020;28;19982;-74
2023/01/15 06:23:08;;;;;;;;;;;5.00;99.90;;;;;;5031920;28;19925;-74
2023/01/15 06:25:37;;;;;;;;;;;5.00;99.90;;;;;;5060169;28;20461;-75
2023/01/15 06:28:03;;;;;;;;;;;5.00;99.90;;;;;;5061855;28;20405;-75
2023/01/15 06:30:36;;;;;;;;;;;4.90;99.90;;;;;;5061960;28;20335;-74
2023/01/15 06:33:06;;;;;;;;;;;4.90;99.90;;;;;;5060476;28;19929;-75
2023/01/15 06:35:32;;;;;;;;;;;5.00;99.90;;;;;;5047858;28;20340;-75
2023/01/15 06:38:01;;;;;;;;;;;5.00;99.90;;;;;;5060310;28;19928;-75
2023/01/15 06:40:30;;;;;;;;;;;4.90;99.90;;;;;;5046474;28;20272;-75
2023/01/15 06:48:28;;;;;;;;;;;5.00;99.90;;;;;;5063109;28;19920;-75
2023/01/15 06:50:53;;;;;;;;;;;5.00;99.90;;;;;;5042298;28;19921;-74
2023/01/15 06:53:22;;;;;;;;;;;5.00;99.90;;;;;;5060303;28;19930;-74
2023/01/15 06:55:52;;;;;;;;;;;5.00;99.90;;;;;;5060373;28;20128;-75
2023/01/15 06:58:20;;;;;;;;;;;5.00;99.90;;;;;;5060976;28;20538;-74
2023/01/15 07:00:53;;;;;;;;;;;5.00;99.90;;;;;;5059121;28;19942;-74
2023/01/15 07:03:18;;;;;;;;;;;5.00;99.90;;;;;;5043788;28;20025;-74
2023/01/15 07:05:44;;;;;;;;;;;5.00;99.90;;;;;;5039633;28;20432;-74
2023/01/15 07:08:09;;;;;;;;;;;4.90;99.90;;;;;;5058462;28;20427;-74
2023/01/15 07:10:39;;;;;;;;;;;5.00;99.90;;;;;;5062396;28;20290;-75
2023/01/15 07:13:06;;;;;;;;;;;4.90;99.90;;;;;;5043893;28;19928;-75
2023/01/15 07:15:31;;;;;;;;;;;4.90;99.90;;;;;;5060825;28;19982;-74
2023/01/15 07:18:00;;;;;;;;;;;4.90;99.90;;;;;;5060177;28;19925;-74
2023/01/15 07:20:26;;;;;;;;;;;4.90;99.90;;;;;;5043983;28;19921;-74
2023/01/15 07:22:54;;;;;;;;;;;4.90;99.90;;;;;;5059554;28;20431;-75
2023/01/15 07:25:20;;;;;;;;;;;4.90;99.90;;;;;;5062292;28;19943;-74
2023/01/15 07:27:47;;;;;;;;;;;4.80;99.90;;;;;;5063208;28;19920;-75
2023/01/15 07:30:15;;;;;;;;;;;4.80;99.90;;;;;;5056788;28;19927;-74
2023/01/15 07:32:52;;;;;;;;;;;4.80;99.90;;;;;;5045180;28;19928;-74
2023/01/15 07:35:18;;;;;;;;;;;4.70;99.90;;;;;;5072291;28;20377;-74
2023/01/15 07:37:43;;;;;;;;;;;4.80;99.90;;;;;;5073976;28;19930;-75
2023/01/15 07:40:13;;;;;;;;;;;4.70;99.90;;;;;;5058746;28;19974;-74
2023/01/15 07:50:53;;;;;;;;;;;4.70;99.90;;;;;;5059591;28;19968;-74
2023/01/15 07:53:18;;;;;;;;;;;4.60;99.90;;;;;;5028447;28;19971;-75
2023/01/15 07:55:44;;;;;;;;;;;4.70;99.90;;;;;;5061117;28;19925;-75
2023/01/15 07:58:12;;;;;;;;;;;4.70;99.90;;;;;;5062247;28;19969;-75
2023/01/15 08:00:38;;;;;;;;;;;4.70;99.90;;;;;;5043559;28;19967;-74
2023/01/15 08:03:09;;;;;;;;;;;4.70;99.90;;;;;;5057933;28;20282;-75
2023/01/15 08:05:35;;;;;;;;;;;4.70;99.90;;;;;;5043575;28;19921;-74
2023/01/15 08:08:01;;;;;;;;;;;4.70;99.90;;;;;;5061516;28;19927;-74
2023/01/15 08:10:26;;;;;;;;;;;4.70;99.90;;;;;;5060720;28;20000;-74
2023/01/15 08:15:50;;;;;;;;;;;4.80;99.90;;;;;;5043008;28;20385;-75
2023/01/15 08:18:18;;;;;;;;;;;4.70;99.90;;;;;;5059636;28;19931;-74
2023/01/15 08:20:44;;;;;;;;;;;4.70;99.90;;;;;;5065875;28;19928;-74
2023/01/15 08:23:12;;;;;;;;;;;4.80;99.90;;;;;;5069161;28;20358;-74
2023/01/15 08:25:38;;;;;;;;;;;4.80;99.90;;;;;;5068950;28;20003;-74
2023/01/15 08:28:08;;;;;;;;;;;4.90;99.90;;;;;;5049362;28;19935;-74
2023/01/15 08:30:36;;;;;;;;;;;5.00;99.90;;;;;;5070429;28;19925;-74
2023/01/15 08:33:23;;;;;;;;;;;5.00;99.90;;;;;;5068196;28;20270;-74
2023/01/15 08:35:49;;;;;;;;;;;5.00;99.90;;;;;;5049668;28;19928;-73
2023/01/15 08:38:17;;;;;;;;;;;5.00;99.90;;;;;;5050108;28;20390;-75
2023/01/15 08:41:01;;;;;;;;;;;4.90;99.90;;;;;;5070320;28;19920;-74
2023/01/15 08:43:27;;;;;;;;;;;4.90;99.90;;;;;;5068259;28;19978;-75
2023/01/15 08:45:59;;;;;;;;;;;4.90;99.90;;;;;;5066575;28;19920;-74
2023/01/15 08:48:28;;;;;;;;;;;5.00;99.90;;;;;;5067632;28;19931;-74
2023/01/15 08:50:54;;;;;;;;;;;5.00;99.90;;;;;;5066185;28;20581;-75
2023/01/15 08:53:23;;;;;;;;;;;5.00;99.90;;;;;;5050831;28;19924;-74
2023/01/15 08:55:50;;;;;;;;;;;5.00;99.90;;;;;;5065968;28;19920;-75
2023/01/15 08:58:16;;;;;;;;;;;5.00;99.90;;;;;;5065863;28;19927;-74
2023/01/15 09:00:42;;;;;;;;;;;5.10;99.90;;;;;;5063903;28;20010;-75
2023/01/15 09:03:10;;;;;;;;;;;5.30;99.90;;;;;;5060979;28;19963;-75
2023/01/15 09:05:37;;;;;;;;;;;5.60;99.90;;;;;;5058831;28;19960;-75
2023/01/15 09:08:06;;;;;;;;;;;5.60;99.90;;;;;;5067905;28;20385;-75
2023/01/15 09:10:31;;;;;;;;;;;5.40;99.90;;;;;;5052015;28;19920;-74
2023/01/15 09:12:58;;;;;;;;;;;5.20;99.90;;;;;;5051410;28;19927;-74
2023/01/15 09:15:24;;;;;;;;;;;5.10;99.90;;;;;;5068499;28;19970;-75
2023/01/15 09:17:49;;;;;;;;;;;5.00;99.90;;;;;;5052206;28;20332;-77
2023/01/15 09:20:15;;;;;;;;;;;4.60;99.90;;;;;;5068576;28;19920;-76
2023/01/15 09:22:40;;;;;;;;;;;4.30;99.90;;;;;;5051429;28;20355;-76
2023/01/15 09:25:06;;;;;;;;;;;4.10;99.90;;;;;;5052923;28;19934;-76
2023/01/15 09:27:33;;;;;;;;;;;3.90;99.90;;;;;;5052324;28;19924;-76
2023/01/15 09:29:59;;;;;;;;;;;3.70;99.90;;;;;;5065744;28;19921;-76
2023/01/15 09:32:24;;;;;;;;;;;3.60;99.90;;;;;;5048751;28;19927;-76
2023/01/15 09:34:50;;;;;;;;;;;3.50;99.90;;;;;;5049628;28;20390;-76
2023/01/15 09:37:16;;;;;;;;;;;3.40;99.90;;;;;;5079565;28;20366;-76
2023/01/15 09:39:41;;;;;;;;;;;3.30;99.90;;;;;;5055180;28;19929;-76
2023/01/15 09:42:42;;;;;;;;;;;3.20;99.90;;;;;;5068733;28;20025;-77
2023/01/15 09:45:20;;;;;;;;;;;3.30;99.90;;;;;;5020284;28;19932;-77
2023/01/15 09:48:00;;;;;;;;;;;3.20;99.90;;;;;;5063982;28;19920;-77
2023/01/15 09:50:36;;;;;;;;;;;3.20;99.90;;;;;;5058023;28;19928;-75
2023/01/15 09:53:02;;;;;;;;;;;3.10;99.90;;;;;;5044898;28;19920;-75
2023/01/15 09:55:32;;;;;;;;;;;3.10;99.90;;;;;;5058727;28;20309;-76
2023/01/15 09:57:59;;;;;;;;;;;3.00;99.90;;;;;;5070351;28;20019;-75
2023/01/15 10:00:26;;;;;;;;;;;3.10;99.90;;;;;;5062690;28;19920;-75
2023/01/15 10:03:05;;;;;;;;;;;3.10;99.90;;;;;;5063094;28;19928;-75
2023/01/15 10:05:43;;;;;;;;;;;3.10;99.90;;;;;;5056771;28;19929;-75
2023/01/15 10:08:14;;;;;;;;;;;3.10;99.90;;;;;;5049121;28;19973;-76
2023/01/15 10:10:46;;;;;;;;;;;3.20;99.90;;;;;;5062910;28;20050;-75
2023/01/15 10:13:17;;;;;;;;;;;3.30;99.90;;;;;;5061718;28;19924;-75
2023/01/15 10:15:45;;;;;;;;;;;2.90;99.90;;;;;;5079940;28;19920;-75
2023/01/15 10:21:36;;;;;;;;;;;3.50;99.90;;;;;;5063161;28;19943;-75
2023/01/15 10:24:21;;;;;;;;;;;3.50;99.90;;;;;;5065295;28;20016;-75
2023/01/15 10:26:54;;;;;;;;;;;3.50;99.90;;;;;;5066669;28;20026;-75
2023/01/15 10:29:26;;;;;;;;;;;3.50;99.90;;;;;;5070924;28;19963;-75
2023/01/15 10:32:19;;;;;;;;;;;3.50;99.90;;;;;;5046651;28;20007;-76
2023/01/15 10:35:06;;;;;;;;;;;3.60;99.90;;;;;;5031447;28;19924;-75
2023/01/15 10:37:37;;;;;;;;;;;3.60;99.90;;;;;;5067896;28;19928;-75
2023/01/15 10:43:12;;;;;;;;;;;3.70;99.90;;;;;;5068249;28;19940;-75
2023/01/15 10:45:46;;;;;;;;;;;3.80;99.90;;;;;;5064737;28;19920;-75
2023/01/15 10:48:15;;;;;;;;;;;3.90;99.90;;;;;;5048892;28;19970;-75
2023/01/15 10:50:51;;;;;;;;;;;4.00;99.90;;;;;;5053230;28;20518;-75
2023/01/15 10:53:26;;;;;;;;;;;4.20;99.90;;;;;;5081361;28;20229;-75
2023/01/15 10:55:58;;;;;;;;;;;4.30;99.90;;;;;;5049558;28;19925;-75
2023/01/15 10:58:23;;;;;;;;;;;4.30;99.90;;;;;;5064281;28;19925;-75
2023/01/15 11:01:15;;;;;;;;;;;4.20;99.90;;;;;;5063004;28;20286;-75
2023/01/15 11:03:42;;;;;;;;;;;4.30;99.90;;;;;;5046924;28;19920;-75
2023/01/15 11:06:18;;;;;;;;;;;4.20;99.90;;;;;;5053725;28;20017;-76
2023/01/15 11:08:47;;;;;;;;;;;4.30;99.90;;;;;;5066936;28;19982;-76
2023/01/15 11:11:16;;;;;;;;;;;4.40;99.90;;;;;;5069740;28;19928;-75
2023/01/15 11:21:51;;;;;;;;;;;4.40;99.90;;;;;;5081406;28;19932;-76
2023/01/15 11:24:17;;;;;;;;;;;4.50;99.90;;;;;;5053383;28;19964;-76
2023/01/15 11:26:49;;;;;;;;;;;4.60;99.90;;;;;;5065654;28;19972;-76
2023/01/15 11:29:31;;;;;;;;;;;4.60;99.90;;;;;;5063759;28;19927;-77
2023/01/15 11:31:57;;;;;;;;;;;4.70;99.90;;;;;;5063453;28;21190;-77
2023/01/15 11:34:23;;;;;;;;;;;4.70;99.90;;;;;;5063572;28;19952;-77
2023/01/15 11:36:59;;;;;;;;;;;4.70;99.90;;;;;;5063717;28;20297;-77
2023/01/15 11:39:27;;;;;;;;;;;4.70;99.90;;;;;;5065712;28;19932;-76
2023/01/15 11:53:17;;;;;;;;;;;4.90;99.90;;;;;;5067541;28;20020;-75
2023/01/15 11:55:50;;;;;;;;;;;4.90;99.90;;;;;;5065097;28;19927;-75
2023/01/15 11:58:15;;;;;;;;;;;5.00;99.90;;;;;;5057029;28;19928;-76
2023/01/15 12:00:45;;;;;;;;;;;5.10;99.90;;;;;;5062274;28;20374;-75
2023/01/15 12:03:13;;;;;;;;;;;5.20;99.90;;;;;;5064496;28;20026;-75
2023/01/15 12:05:44;;;;;;;;;;;5.20;99.90;;;;;;5061537;28;19925;-75
2023/01/15 12:08:21;;;;;;;;;;;5.30;99.90;;;;;;5064978;28;20393;-75
2023/01/15 12:11:03;;;;;;;;;;;5.40;99.90;;;;;;5060384;28;20393;-75
2023/01/15 12:13:55;;;;;;;;;;;5.50;99.90;;;;;;5074423;28;20027;-74
2023/01/15 12:16:30;;;;;;;;;;;5.60;99.90;;;;;;5057535;28;19932;-75
2023/01/15 12:19:12;;;;;;;;;;;5.60;99.90;;;;;;5059106;28;19943;-75
2023/01/15 12:21:53;;;;;;;;;;;5.60;99.90;;;;;;5045030;28;19973;-75
2023/01/15 12:24:18;;;;;;;;;;;5.50;99.90;;;;;;5040919;28;20458;-75
2023/01/15 12:27:06;;;;;;;;;;;5.50;99.90;;;;;;5054642;28;19924;-75
2023/01/15 12:29:38;;;;;;;;;;;5.50;99.90;;;;;;5044580;28;20364;-75
2023/01/15 12:32:14;;;;;;;;;;;5.60;99.90;;;;;;5060158;28;19924;-74
2023/01/15 12:34:45;;;;;;;;;;;5.60;99.90;;;;;;5058048;28;20345;-75
2023/01/15 12:37:23;;;;;;;;;;;5.60;99.90;;;;;;5060505;28;20336;-75
2023/01/15 12:40:18;;;;;;;;;;;5.80;99.90;;;;;;5059357;28;19968;-74
2023/01/15 12:45:44;;;;;;;;;;;5.80;99.90;;;;;;5055523;28;20144;-77
2023/01/15 12:48:31;;;;;;;;;;;5.70;99.90;;;;;;5063632;28;20448;-76
2023/01/15 12:50:59;;;;;;;;;;;5.70;99.90;;;;;;5044858;28;19947;-76
2023/01/15 12:53:45;;;;;;;;;;;5.60;99.90;;;;;;5063093;28;19924;-75
2023/01/15 12:56:10;;;;;;;;;;;5.70;99.90;;;;;;5045456;28;20055;-75
2023/01/15 12:58:42;;;;;;;;;;;5.70;99.90;;;;;;5043796;28;20275;-75
2023/01/15 13:01:12;;;;;;;;;;;5.70;99.90;;;;;;5045091;28;20297;-76
2023/01/15 13:03:59;;;;;;;;;;;5.70;99.90;;;;;;5048291;28;19928;-75
2023/01/15 13:06:28;;;;;;;;;;;5.40;99.90;;;;;;5058845;28;19928;-76
2023/01/15 13:09:32;;;;;;;;;;;5.20;99.90;;;;;;5059901;28;19928;-75
2023/01/15 13:12:02;;;;;;;;;;;5.20;99.90;;;;;;4987724;28;19925;-76
2023/01/15 13:14:29;;;;;;;;;;;5.20;99.90;;;;;;5052957;28;19924;-76
2023/01/15 13:17:13;;;;;;;;;;;5.30;99.90;;;;;;5046870;28;19942;-76
2023/01/15 13:19:45;;;;;;;;;;;5.20;99.90;;;;;;5057367;28;19974;-77
2023/01/15 13:22:23;;;;;;;;;;;5.10;99.90;;;;;;5062508;28;19929;-78
2023/01/15 13:24:49;;;;;;;;;;;4.90;99.90;;;;;;5059513;28;19990;-76
2023/01/15 13:27:27;;;;;;;;;;;4.80;99.90;;;;;;5059472;28;19959;-76
2023/01/15 13:30:12;;;;;;;;;;;4.60;99.90;;;;;;5061297;28;21429;-78
2023/01/15 13:32:59;;;;;;;;;;;4.50;99.90;;;;;;5046750;28;19924;-79
2023/01/15 13:35:33;;;;;;;;;;;4.40;99.90;;;;;;5059316;28;20001;-78
2023/01/15 13:38:13;;;;;;;;;;;4.30;99.90;;;;;;5062207;28;19931;-79
2023/01/15 13:40:49;;;;;;;;;;;4.40;99.90;;;;;;5051330;28;19940;-77
2023/01/15 13:43:31;;;;;;;;;;;4.50;99.90;;;;;;5048099;28;20002;-77
2023/01/15 13:50:32;;;;;;;8.75;2.30;;;5.90;99.90;;;;;;5098758;27;1368021;-77
2023/01/15 13:53:30;;;;;;;7.07;2.10;;;8.10;99.90;;;;;;5125728;27;20074;-73
2023/01/15 13:56:04;;;;;;;2.53;2.42;;;10.30;99.90;;;;;;5114041;27;21007;-65
2023/01/15 13:58:38;;;;;;;647.72;328.48;;;12.00;99.90;;;;;;5121075;27;20403;-67
2023/01/15 14:01:19;;;;;;;25.73;23.33;;;13.20;99.90;;;;;;5139559;27;20070;-67
2023/01/15 14:04:04;;;;;;;26.25;24.73;;;19.40;99.90;;;;;;5126265;27;20460;-69
2023/01/15 14:06:44;;;;;;;25.75;24.23;;;18.70;99.90;;;;;;5100494;27;21025;-66
2023/01/15 14:09:26;;;;;;;27.15;25.55;;;17.60;99.90;;;;;;5093833;27;20490;-66
2023/01/15 14:12:13;;;;;;;25.90;24.40;;;17.40;99.90;;;;;;5124431;27;20656;-66
2023/01/15 14:14:58;;;;;;;25.45;23.95;;;17.30;99.90;;;;;;5106820;27;21093;-66
2023/01/15 14:18:07;;;;;;;25.00;23.60;;;17.40;99.90;;;;;;5129393;27;20397;-66
2023/01/15 14:20:43;;;;;;;552.77;479.87;;;17.50;99.90;;;;;;5009430;28;20425;-69
2023/01/15 14:23:20;;;;;;;305.55;238.95;;;17.60;99.90;;;;;;5045373;28;20417;-60
2023/01/15 14:26:09;;;;;;;0.00;0.00;;;17.80;99.90;;;;;;5087383;27;20051;-62
2023/01/15 14:28:40;;;;;;;6.90;1.90;;;17.80;99.90;;;;;;5110366;27;20066;-83
2023/01/15 14:31:30;;;;;;;9.85;2.42;;;18.10;99.90;;;;;;5089862;27;20457;-73
2023/01/15 14:34:16;;;;;;;7.75;2.30;;;18.20;99.90;;;;;;5091431;27;20035;-71
2023/01/15 14:36:50;;;;;;;7.10;2.42;;;18.20;99.90;;;;;;5111651;27;20503;-84
2023/01/15 14:40:28;;;;;;;3.83;1.38;;;18.30;99.90;;;;;;5107957;27;20494;-74
2023/01/15 14:43:03;;;;;;;8.65;2.30;;;18.40;99.90;;;;;;5089818;28;20047;-74
2023/01/15 14:45:43;;;;;;;2.92;1.70;;;18.50;99.90;;;;;;5119816;27;20211;-73
2023/01/15 14:48:27;;;;;;;7.88;2.08;;;18.60;99.90;;;;;;5103750;27;20035;-76
2023/01/15 14:50:56;;;;;;;7.95;2.38;;;18.60;99.90;;;;;;5123485;27;20513;-74
2023/01/15 14:59:36;;;;;;;4.70;1.33;;;14.10;95.80;;;;;;5098745;27;20437;-77
2023/01/15 15:02:13;;;;;;;5.78;1.30;;;10.10;99.90;;;;;;5087959;28;20043;-77
2023/01/15 15:04:52;;;;;;;5.20;1.40;;;7.50;99.90;;;;;;5082709;28;20042;-76
2023/01/15 15:07:24;;;;;;;2.88;1.10;;;6.20;99.90;;;;;;5066183;28;21047;-77
2023/01/15 15:10:23;;;;;;;5.45;1.20;;;5.50;99.90;;;;;;5062787;28;20385;-76
2023/01/15 15:13:12;;;;;;;3.67;0.80;;;5.10;99.90;;;;;;5091409;28;20043;-76
2023/01/15 15:16:14;;;;;;;2.60;1.33;;;4.80;99.90;;;;;;5113003;28;20096;-77
2023/01/15 15:18:57;;;;;;;2.10;1.02;;;4.70;99.90;;;;;;5097229;28;21550;-76
2023/01/15 15:21:42;;;;;;;2.17;1.30;;;4.60;99.90;;;;;;5076333;28;20122;-76
2023/01/15 15:24:26;;;;;;;4.68;1.35;;;4.60;99.90;;;;;;5096738;28;20040;-77
2023/01/15 15:26:55;;;;;;;3.90;1.20;;;4.60;99.90;;;;;;5078651;28;20044;-76
2023/01/15 15:29:21;;;;;;;6.47;1.35;;;4.50;99.90;;;;;;5076444;28;20027;-76
2023/01/15 15:31:54;;;;;;;5.03;0.95;;;4.60;99.90;;;;;;5092731;28;20046;-75
2023/01/15 15:34:32;;;;;;;3.28;1.23;;;4.70;99.90;;;;;;5096425;28;20519;-75
2023/01/15 15:37:05;;;;;;;3.45;1.45;;;4.70;99.90;;;;;;5096549;28;20038;-74
2023/01/15 15:39:43;;;;;;;6.90;1.30;;;4.60;99.90;;;;;;5078144;28;20495;-76
2023/01/15 15:48:52;;;;;;;8.32;2.15;;;4.70;99.90;;;;;;5095367;28;20039;-75
2023/01/15 15:51:30;;;;;;;6.95;1.27;;;4.60;99.90;;;;;;5094707;28;20070;-75
2023/01/15 15:54:19;;;;;;;5.20;1.40;;;4.60;99.90;;;;;;5096020;28;20508;-74
2023/01/15 15:57:07;;;;;;;5.97;1.73;;;4.60;99.90;;;;;;5097320;28;20043;-75
2023/01/15 15:59:36;;;;;;;5.60;1.75;;;4.60;99.90;;;;;;5095458;28;20672;-75